createdAt,value
2023-05-08T00:01:16.904Z,4.13
2023-05-08T00:03:47.613Z,37.07
2023-05-08T00:06:18.109Z,54.92
2023-05-08T00:08:47.571Z,5.20
2023-05-08T00:11:16.669Z,5.38
2023-05-08T00:13:46.100Z,5.60
2023-05-08T00:16:15.499Z,4.50
2023-05-08T00:18:44.272Z,4.65
2023-05-08T00:21:12.831Z,4.72
2023-05-08T00:23:43.684Z,5.22
2023-05-08T00:26:12.403Z,8.15
2023-05-08T00:28:41.620Z,7.47
2023-05-08T00:31:10.476Z,7.55
2023-05-08T00:33:39.206Z,8.80
2023-05-08T00:36:08.520Z,9.00
2023-05-08T00:38:38.445Z,6.53
2023-05-08T00:41:08.692Z,6.75
2023-05-08T00:43:40.235Z,6.43
2023-05-08T00:46:09.847Z,7.43
2023-05-08T00:48:41.145Z,7.05
2023-05-08T00:51:11.463Z,4.50
2023-05-08T00:53:45.380Z,9.73
2023-05-08T00:56:18.208Z,4.93
2023-05-08T00:58:48.414Z,6.18
2023-05-08T01:01:17.218Z,4.47
2023-05-08T01:03:46.234Z,6.47
2023-05-08T01:06:14.886Z,6.43
2023-05-08T01:08:46.317Z,9.60
2023-05-08T01:11:23.042Z,6.93
2023-05-08T01:14:02.807Z,7.25
2023-05-08T01:16:41.152Z,5.20
2023-05-08T01:19:29.156Z,7.22
2023-05-08T01:22:06.611Z,5.50
2023-05-08T01:25:06.108Z,5.50
2023-05-08T01:28:07.072Z,7.45
2023-05-08T01:30:59.981Z,6.40
2023-05-08T01:33:36.866Z,7.55
2023-05-08T01:36:20.298Z,10.25
2023-05-08T01:38:57.431Z,12.43
2023-05-08T01:41:29.460Z,11.38
2023-05-08T01:44:12.180Z,9.55
2023-05-08T01:46:41.200Z,12.50
2023-05-08T01:49:19.171Z,7.60
2023-05-08T01:51:54.338Z,5.25
2023-05-08T01:54:27.282Z,5.57
2023-05-08T01:56:59.867Z,6.35
2023-05-08T01:59:31.702Z,5.60
2023-05-08T02:04:32.022Z,2.95
2023-05-08T02:07:02.287Z,3.63
2023-05-08T02:09:33.612Z,5.38
2023-05-08T02:12:04.334Z,6.05
2023-05-08T02:14:34.285Z,4.95
2023-05-08T02:17:05.503Z,6.43
2023-05-08T02:19:37.935Z,5.25
2023-05-08T02:22:08.660Z,4.40
2023-05-08T02:24:39.288Z,4.35
2023-05-08T02:27:10.465Z,4.47
2023-05-08T02:29:43.125Z,5.72
2023-05-08T02:32:16.353Z,4.47
2023-05-08T02:35:02.570Z,4.93
2023-05-08T02:37:36.627Z,5.28
2023-05-08T02:40:11.387Z,5.13
2023-05-08T02:42:42.901Z,4.50
2023-05-08T02:45:23.874Z,5.93
2023-05-08T02:48:09.481Z,5.10
2023-05-08T02:51:03.583Z,5.07
2023-05-08T02:53:53.803Z,4.75
2023-05-08T02:56:34.887Z,6.22
2023-05-08T02:59:16.015Z,5.13
2023-05-08T03:02:19.145Z,5.75
2023-05-08T03:04:58.786Z,5.93
2023-05-08T03:07:32.349Z,6.93
2023-05-08T03:10:11.127Z,8.32
2023-05-08T03:13:05.511Z,6.30
2023-05-08T03:15:44.197Z,6.07
2023-05-08T03:18:26.709Z,5.38
2023-05-08T03:21:04.906Z,6.25
2023-05-08T03:23:42.704Z,4.85
2023-05-08T03:26:50.729Z,6.00
2023-05-08T03:29:21.779Z,6.13
2023-05-08T03:31:52.554Z,8.68
2023-05-08T03:34:22.910Z,5.30
2023-05-08T03:36:52.598Z,8.52
2023-05-08T03:39:23.303Z,7.07
2023-05-08T03:41:52.646Z,5.43
2023-05-08T03:44:21.878Z,7.50
2023-05-08T03:46:52.084Z,5.80
2023-05-08T03:49:23.988Z,7.40
2023-05-08T03:51:54.246Z,7.38
2023-05-08T03:54:25.832Z,6.55
2023-05-08T03:56:55.913Z,7.22
2023-05-08T03:59:36.839Z,7.00
2023-05-08T04:02:15.349Z,6.18
2023-05-08T04:04:47.178Z,8.20
2023-05-08T04:07:26.151Z,7.65
2023-05-08T04:10:03.170Z,6.30
2023-05-08T04:12:40.208Z,7.88
2023-05-08T04:15:14.393Z,7.03
2023-05-08T04:17:47.431Z,7.63
2023-05-08T04:20:21.418Z,7.88
2023-05-08T04:22:54.095Z,8.07
2023-05-08T04:25:27.168Z,9.55
2023-05-08T04:27:58.779Z,10.13
2023-05-08T04:30:28.533Z,7.20
2023-05-08T04:32:58.153Z,8.18
2023-05-08T04:35:27.919Z,6.22
2023-05-08T04:37:57.631Z,7.22
2023-05-08T04:40:27.994Z,8.73
2023-05-08T04:42:57.332Z,6.53
2023-05-08T04:45:27.366Z,11.45
2023-05-08T04:47:56.306Z,6.30
2023-05-08T04:50:25.790Z,6.80
2023-05-08T04:52:54.965Z,8.00
2023-05-08T04:55:23.468Z,7.43
2023-05-08T04:57:53.330Z,7.72
2023-05-08T05:00:22.481Z,5.55
2023-05-08T05:02:51.059Z,7.43
2023-05-08T05:05:20.034Z,7.05
2023-05-08T05:07:48.717Z,7.05
2023-05-08T05:10:18.498Z,6.95
2023-05-08T05:12:47.924Z,7.03
2023-05-08T05:15:18.653Z,8.57
2023-05-08T05:17:47.708Z,6.47
2023-05-08T05:20:17.387Z,9.98
2023-05-08T05:22:46.467Z,6.78
2023-05-08T05:25:16.273Z,7.03
2023-05-08T05:27:45.255Z,8.00
2023-05-08T05:30:14.455Z,6.53
2023-05-08T05:32:45.140Z,6.93
2023-05-08T05:35:14.001Z,7.80
2023-05-08T05:37:43.133Z,5.53
2023-05-08T05:40:13.656Z,11.25
2023-05-08T05:42:43.224Z,6.95
2023-05-08T05:45:12.697Z,8.85
2023-05-08T05:47:50.578Z,5.95
2023-05-08T05:50:22.721Z,7.18
2023-05-08T05:52:52.890Z,7.27
2023-05-08T05:55:22.936Z,18.17
2023-05-08T05:57:51.770Z,14.82
2023-05-08T06:00:21.648Z,13.32
2023-05-08T06:02:56.143Z,15.80
2023-05-08T06:05:25.271Z,8.20
2023-05-08T06:07:53.988Z,11.07
2023-05-08T06:10:22.829Z,7.00
2023-05-08T06:12:52.065Z,5.32
2023-05-08T06:15:21.021Z,8.15
2023-05-08T06:17:50.385Z,6.00
2023-05-08T06:20:21.059Z,5.60
2023-05-08T06:22:49.877Z,3.35
2023-05-08T06:25:19.391Z,12.45
2023-05-08T06:27:47.856Z,6.90
2023-05-08T06:30:16.783Z,8.70
2023-05-08T06:32:45.965Z,7.15
2023-05-08T06:35:18.494Z,5.95
2023-05-08T06:37:48.450Z,6.88
2023-05-08T06:40:17.263Z,4.28
2023-05-08T06:42:46.405Z,3.63
2023-05-08T06:45:15.636Z,6.32
2023-05-08T06:47:44.523Z,5.50
2023-05-08T06:50:13.328Z,3.08
2023-05-08T06:52:42.497Z,4.30
2023-05-08T06:55:15.247Z,12.43
2023-05-08T06:57:44.508Z,10.48
2023-05-08T07:00:14.909Z,4.53
2023-05-08T07:02:45.601Z,3.72
2023-05-08T07:05:14.893Z,3.30
2023-05-08T07:07:43.925Z,43.00
2023-05-08T07:10:14.432Z,4.82
2023-05-08T07:12:43.828Z,2.80
2023-05-08T07:15:24.713Z,4.32
2023-05-08T07:17:55.454Z,2.92
2023-05-08T07:20:24.630Z,2.53
2023-05-08T07:22:53.324Z,3.33
2023-05-08T07:25:23.784Z,5.00
2023-05-08T07:27:52.649Z,2.83
2023-05-08T07:30:22.095Z,3.95
2023-05-08T07:32:51.262Z,4.60
2023-05-08T07:35:22.933Z,4.15
2023-05-08T07:37:52.958Z,4.68
2023-05-08T07:40:23.590Z,2.67
2023-05-08T07:42:54.792Z,4.55
2023-05-08T07:45:24.248Z,2.83
2023-05-08T07:47:55.288Z,62.10
2023-05-08T07:50:25.489Z,11.70
2023-05-08T07:52:57.701Z,52.60
2023-05-08T07:55:28.160Z,93.72
2023-05-08T07:57:57.516Z,2.85
2023-05-08T08:00:27.634Z,3.22
2023-05-08T08:02:59.000Z,3.17
2023-05-08T08:05:31.612Z,3.80
2023-05-08T08:08:00.530Z,4.68
2023-05-08T08:10:31.676Z,4.88
2023-05-08T08:13:01.954Z,5.50
2023-05-08T08:15:31.017Z,5.35
2023-05-08T08:18:00.409Z,3.83
2023-05-08T08:20:30.008Z,4.47
2023-05-08T08:22:58.927Z,6.30
2023-05-08T08:25:28.070Z,5.20
2023-05-08T08:27:58.982Z,2.90
2023-05-08T08:30:30.907Z,3.60
2023-05-08T08:33:02.488Z,2.65
2023-05-08T08:38:00.752Z,3.70
2023-05-08T08:40:29.979Z,2.35
2023-05-08T08:43:01.084Z,2.20
2023-05-08T08:45:30.513Z,4.90
2023-05-08T08:48:03.873Z,2.42
2023-05-08T08:50:34.333Z,2.65
2023-05-08T08:53:12.045Z,4.55
2023-05-08T08:55:45.761Z,4.78
2023-05-08T08:58:24.159Z,3.30
2023-05-08T09:00:57.884Z,3.42
2023-05-08T09:03:27.475Z,5.20
2023-05-08T09:05:56.883Z,3.80
2023-05-08T09:08:26.153Z,5.05
2023-05-08T09:10:57.818Z,4.90
2023-05-08T09:13:30.416Z,2.45
2023-05-08T09:16:00.589Z,2.60
2023-05-08T09:18:30.080Z,2.83
2023-05-08T09:21:00.611Z,4.68
2023-05-08T09:23:29.504Z,4.03
2023-05-08T09:26:01.491Z,6.28
2023-05-08T09:28:32.406Z,4.28
2023-05-08T09:31:02.338Z,6.57
2023-05-08T09:33:31.578Z,2.08
2023-05-08T09:36:04.324Z,2.65
2023-05-08T09:38:38.940Z,5.15
2023-05-08T09:41:09.616Z,2.22
2023-05-08T09:43:40.394Z,3.40
2023-05-08T09:46:25.970Z,3.15
2023-05-08T09:48:56.508Z,2.80
2023-05-08T09:51:26.601Z,6.53
2023-05-08T09:53:56.757Z,4.28
2023-05-08T09:56:34.218Z,2.28
2023-05-08T09:59:06.811Z,2.17
2023-05-08T10:01:39.944Z,2.05
2023-05-08T10:04:12.222Z,3.08
2023-05-08T10:06:41.389Z,3.70
2023-05-08T10:09:12.023Z,4.20
2023-05-08T10:11:41.754Z,3.17
2023-05-08T10:14:12.290Z,4.30
2023-05-08T10:16:45.746Z,2.97
2023-05-08T10:19:16.321Z,2.28
2023-05-08T10:21:48.588Z,3.53
2023-05-08T10:24:19.619Z,1.63
2023-05-08T10:27:06.801Z,3.05
2023-05-08T10:29:44.459Z,6.45
2023-05-08T10:32:16.052Z,2.28
2023-05-08T10:34:48.248Z,1.40
2023-05-08T10:37:17.916Z,2.78
2023-05-08T10:39:47.971Z,2.85
2023-05-08T10:42:17.092Z,3.53
2023-05-08T10:44:47.863Z,2.67
2023-05-08T10:47:29.302Z,1.38
2023-05-08T10:50:05.803Z,1.50
2023-05-08T10:52:40.988Z,2.78
2023-05-08T10:55:24.317Z,3.45
2023-05-08T10:58:07.870Z,3.28
2023-05-08T11:01:15.172Z,3.13
2023-05-08T11:03:51.082Z,2.67
2023-05-08T11:06:49.165Z,2.55
2023-05-08T11:09:29.703Z,1.52
2023-05-08T11:12:09.577Z,3.83
2023-05-08T11:14:43.074Z,2.85
2023-05-08T11:17:13.422Z,4.50
2023-05-08T11:19:57.647Z,2.58
2023-05-08T11:22:31.176Z,3.30
2023-05-08T11:25:05.609Z,1.63
2023-05-08T11:27:39.707Z,18.23
2023-05-08T11:30:26.491Z,17.35
2023-05-08T11:33:19.000Z,3.72
2023-05-08T11:35:53.370Z,3.53
2023-05-08T11:38:25.233Z,2.17
2023-05-08T11:41:02.832Z,2.95
2023-05-08T11:44:15.689Z,2.78
2023-05-08T11:46:50.151Z,2.15
2023-05-08T11:49:27.085Z,1.95
2023-05-08T11:52:00.521Z,1.48
2023-05-08T11:54:32.899Z,4.63
2023-05-08T11:57:02.685Z,2.58
2023-05-08T11:59:37.446Z,2.33
2023-05-08T12:02:09.087Z,1.55
2023-05-08T12:04:47.251Z,1.77
2023-05-08T12:07:16.582Z,1.98
2023-05-08T12:09:47.452Z,3.97
2023-05-08T12:12:17.266Z,3.58
2023-05-08T12:14:50.607Z,2.25
2023-05-08T12:17:20.175Z,2.42
2023-05-08T12:19:55.570Z,2.45
2023-05-08T12:22:24.666Z,2.97
2023-05-08T12:24:55.686Z,3.13
2023-05-08T12:27:26.710Z,2.00
2023-05-08T12:29:56.083Z,3.03
2023-05-08T12:32:27.723Z,3.47
2023-05-08T12:35:03.103Z,1.67
2023-05-08T12:37:32.323Z,2.08
2023-05-08T12:40:01.609Z,4.38
2023-05-08T12:42:46.924Z,2.17
2023-05-08T12:45:20.182Z,1.40
2023-05-08T12:47:50.374Z,3.17
2023-05-08T12:50:23.260Z,2.88
2023-05-08T12:52:53.307Z,5.18
2023-05-08T12:55:26.715Z,4.15
2023-05-08T12:58:07.741Z,5.40
2023-05-08T13:00:39.415Z,2.22
2023-05-08T13:03:09.592Z,1.52
2023-05-08T13:05:44.370Z,4.05
2023-05-08T13:08:13.928Z,2.85
2023-05-08T13:10:51.204Z,5.95
2023-05-08T13:13:21.780Z,3.55
2023-05-08T13:15:53.224Z,4.22
2023-05-08T13:18:25.778Z,2.25
2023-05-08T13:20:59.135Z,3.25
2023-05-08T13:23:28.514Z,2.90
2023-05-08T13:25:58.275Z,3.15
2023-05-08T13:28:28.286Z,3.75
2023-05-08T13:30:57.847Z,3.08
2023-05-08T13:33:27.686Z,3.47
2023-05-08T13:36:01.841Z,3.10
2023-05-08T13:38:31.148Z,2.55
2023-05-08T13:41:01.775Z,1.85
2023-05-08T13:43:31.199Z,7.65
2023-05-08T13:46:00.333Z,2.70
2023-05-08T13:48:29.721Z,2.20
2023-05-08T13:50:59.133Z,2.90
2023-05-08T13:53:29.759Z,3.17
2023-05-08T13:55:58.583Z,2.80
2023-05-08T13:58:27.689Z,2.17
2023-05-08T14:00:57.140Z,3.35
2023-05-08T14:03:29.223Z,2.10
2023-05-08T14:05:58.522Z,5.15
2023-05-08T14:08:29.548Z,3.28
2023-05-08T14:10:58.840Z,2.97
2023-05-08T14:13:28.091Z,7.05
2023-05-08T14:15:57.269Z,2.03
2023-05-08T14:18:26.926Z,1.30
2023-05-08T14:20:57.469Z,3.22
2023-05-08T14:23:30.499Z,2.17
2023-05-08T14:25:59.547Z,5.35
2023-05-08T14:28:29.001Z,2.50
2023-05-08T14:30:58.499Z,2.20
2023-05-08T14:33:27.186Z,2.45
2023-05-08T14:35:57.052Z,1.98
2023-05-08T14:38:26.647Z,2.17
2023-05-08T14:40:56.688Z,1.48
2023-05-08T14:43:25.685Z,3.05
2023-05-08T14:45:54.588Z,3.30
2023-05-08T14:48:24.265Z,2.95
2023-05-08T14:50:53.492Z,2.42
2023-05-08T14:53:22.412Z,1.88
2023-05-08T14:55:51.604Z,3.55
2023-05-08T14:58:22.222Z,2.92
2023-05-08T15:00:51.653Z,3.63
2023-05-08T15:03:20.766Z,4.35
2023-05-08T15:05:49.883Z,4.10
2023-05-08T15:08:18.867Z,4.47
2023-05-08T15:10:47.958Z,2.20
2023-05-08T15:13:16.928Z,2.22
2023-05-08T15:15:47.239Z,2.15
2023-05-08T15:18:16.930Z,2.20
2023-05-08T15:20:46.414Z,3.67
2023-05-08T15:23:15.289Z,2.30
2023-05-08T15:25:46.456Z,4.75
2023-05-08T15:28:15.756Z,2.40
2023-05-08T15:30:49.829Z,2.22
2023-05-08T15:33:18.775Z,2.03
2023-05-08T15:35:47.927Z,1.52
2023-05-08T15:38:17.213Z,1.75
2023-05-08T15:40:46.579Z,7.13
2023-05-08T15:43:15.486Z,2.80
2023-05-08T15:45:44.222Z,2.33
2023-05-08T15:48:15.767Z,4.80
2023-05-08T15:50:46.268Z,3.60
2023-05-08T15:53:15.314Z,2.33
2023-05-08T15:55:44.304Z,2.60
2023-05-08T15:58:14.129Z,5.97
2023-05-08T16:00:45.508Z,4.80
2023-05-08T16:03:17.361Z,3.97
2023-05-08T16:05:46.916Z,4.50
2023-05-08T16:08:16.819Z,3.28
2023-05-08T16:10:45.596Z,2.28
2023-05-08T16:13:14.576Z,2.47
2023-05-08T16:15:43.681Z,2.30
2023-05-08T16:18:12.879Z,2.72
2023-05-08T16:20:43.812Z,3.58
2023-05-08T16:25:43.393Z,3.13
2023-05-08T16:28:12.528Z,4.07
2023-05-08T16:30:41.719Z,4.05
2023-05-08T16:33:12.512Z,5.30
2023-05-08T16:35:43.173Z,3.92
2023-05-08T16:38:11.955Z,6.05
2023-05-08T16:40:42.002Z,2.90
2023-05-08T16:43:11.302Z,3.10
2023-05-08T16:45:40.063Z,2.50
2023-05-08T16:48:09.854Z,3.40
2023-05-08T16:50:39.123Z,2.63
2023-05-08T16:53:09.852Z,2.35
2023-05-08T16:55:38.866Z,12.95
2023-05-08T16:58:08.016Z,2.55
2023-05-08T17:00:37.442Z,1.90
2023-05-08T17:03:11.542Z,2.58
2023-05-08T17:05:41.811Z,3.22
2023-05-08T17:08:13.258Z,1.70
2023-05-08T17:10:43.966Z,4.22
2023-05-08T17:13:13.350Z,4.73
2023-05-08T17:15:43.374Z,2.78
2023-05-08T17:18:13.004Z,2.15
2023-05-08T17:20:42.863Z,2.78
2023-05-08T17:23:13.232Z,4.32
2023-05-08T17:25:42.129Z,3.03
2023-05-08T17:28:11.230Z,2.15
2023-05-08T17:30:41.399Z,3.38
2023-05-08T17:33:10.073Z,4.72
2023-05-08T17:35:38.829Z,4.95
2023-05-08T17:38:08.009Z,5.50
2023-05-08T17:40:39.249Z,12.50
2023-05-08T17:43:09.331Z,15.73
2023-05-08T17:48:14.639Z,15.82
2023-05-08T17:50:47.694Z,20.95
2023-05-08T17:53:22.365Z,15.73
2023-05-08T17:55:54.882Z,7.28
2023-05-08T17:58:24.036Z,9.15
2023-05-08T18:00:54.522Z,11.35
2023-05-08T18:03:24.453Z,9.35
2023-05-08T18:05:53.920Z,11.50
2023-05-08T18:08:23.269Z,21.40
2023-05-08T18:10:52.363Z,15.15
2023-05-08T18:13:23.186Z,22.20
2023-05-08T18:15:53.288Z,16.80
2023-05-08T18:18:22.628Z,12.05
2023-05-08T18:20:53.208Z,11.25
2023-05-08T18:23:24.553Z,12.82
2023-05-08T18:25:53.635Z,8.65
2023-05-08T18:28:23.883Z,10.10
2023-05-08T18:30:52.810Z,8.20
2023-05-08T18:33:21.985Z,7.53
2023-05-08T18:35:55.894Z,8.30
2023-05-08T18:38:25.472Z,6.35
2023-05-08T18:40:54.579Z,6.78
2023-05-08T18:43:24.864Z,6.90
2023-05-08T18:45:53.829Z,7.35
2023-05-08T18:48:22.980Z,6.00
2023-05-08T18:50:52.167Z,5.05
2023-05-08T18:53:21.616Z,4.80
2023-05-08T18:55:51.199Z,6.50
2023-05-08T18:58:20.344Z,9.43
2023-05-08T19:00:50.595Z,4.43
2023-05-08T19:03:19.899Z,5.18
2023-05-08T19:05:48.756Z,4.57
2023-05-08T19:08:18.853Z,4.85
2023-05-08T19:10:47.975Z,5.85
2023-05-08T19:13:17.150Z,6.85
2023-05-08T19:15:46.668Z,4.32
2023-05-08T19:18:18.278Z,6.25
2023-05-08T19:20:47.075Z,10.88
2023-05-08T19:23:17.421Z,8.98
2023-05-08T19:25:46.393Z,5.63
2023-05-08T19:28:15.435Z,7.05
2023-05-08T19:30:44.485Z,14.30
2023-05-08T19:33:13.426Z,13.57
2023-05-08T19:35:45.147Z,10.05
2023-05-08T19:38:14.119Z,7.30
2023-05-08T19:40:55.716Z,6.82
2023-05-08T19:43:26.195Z,7.13
2023-05-08T19:45:56.727Z,9.45
2023-05-08T19:48:26.816Z,9.60
2023-05-08T19:50:57.304Z,8.95
2023-05-08T19:53:26.333Z,9.95
2023-05-08T19:55:55.094Z,12.48
2023-05-08T19:58:24.413Z,11.07
2023-05-08T20:00:53.384Z,14.10
2023-05-08T20:03:23.238Z,9.13
2023-05-08T20:05:54.363Z,16.88
2023-05-08T20:08:25.866Z,9.52
2023-05-08T20:10:55.013Z,12.57
2023-05-08T20:13:24.395Z,15.23
2023-05-08T20:15:54.103Z,15.07
2023-05-08T20:18:23.233Z,11.75
2023-05-08T20:20:53.584Z,9.75
2023-05-08T20:23:22.942Z,11.38
2023-05-08T20:25:54.919Z,19.27
2023-05-08T20:30:55.308Z,11.27
2023-05-08T20:33:24.161Z,14.05
2023-05-08T20:35:54.293Z,8.32
2023-05-08T20:38:23.488Z,14.75
2023-05-08T20:40:59.353Z,10.40
2023-05-08T20:43:29.830Z,8.32
2023-05-08T20:45:59.124Z,13.45
2023-05-08T20:48:28.296Z,6.70
2023-05-08T20:50:57.413Z,24.85
2023-05-08T20:53:26.040Z,30.73
2023-05-08T20:56:03.297Z,20.00
2023-05-08T20:58:32.902Z,15.82
2023-05-08T21:01:02.511Z,20.67
2023-05-08T21:03:31.901Z,24.48
2023-05-08T21:06:01.244Z,25.25
2023-05-08T21:08:30.673Z,22.55
2023-05-08T21:11:02.360Z,27.35
2023-05-08T21:13:33.496Z,25.90
2023-05-08T21:16:03.272Z,29.55
2023-05-08T21:18:32.834Z,22.92
2023-05-08T21:21:02.241Z,21.40
2023-05-08T21:23:31.951Z,21.42
2023-05-08T21:26:01.077Z,22.00
2023-05-08T21:28:32.646Z,31.38
2023-05-08T21:31:03.027Z,25.70
2023-05-08T21:33:33.977Z,20.17
2023-05-08T21:36:03.169Z,20.80
2023-05-08T21:38:32.367Z,20.17
2023-05-08T21:41:07.841Z,23.45
2023-05-08T21:43:37.287Z,24.02
2023-05-08T21:46:09.398Z,19.98
2023-05-08T21:51:07.775Z,20.58
2023-05-08T21:53:36.516Z,21.75
2023-05-08T21:56:07.368Z,25.08
2023-05-08T21:58:36.336Z,27.33
2023-05-08T22:01:07.862Z,29.23
2023-05-08T22:03:37.253Z,22.45
2023-05-08T22:06:06.462Z,29.00
2023-05-08T22:08:36.016Z,24.25
2023-05-08T22:11:05.932Z,20.30
2023-05-08T22:13:34.925Z,21.27
2023-05-08T22:16:04.227Z,21.05
2023-05-08T22:18:34.753Z,17.20
2023-05-08T22:21:04.950Z,16.42
2023-05-08T22:23:35.038Z,19.38
2023-05-08T22:26:04.462Z,20.13
2023-05-08T22:28:33.032Z,17.35
2023-05-08T22:31:01.793Z,14.23
2023-05-08T22:33:33.980Z,19.48
2023-05-08T22:36:04.541Z,20.80
2023-05-08T22:38:33.186Z,20.15
2023-05-08T22:41:02.127Z,20.08
2023-05-08T22:43:30.932Z,22.08
2023-05-08T22:46:00.324Z,17.60
2023-05-08T22:48:30.166Z,23.25
2023-05-08T22:50:59.388Z,21.83
2023-05-08T22:53:29.576Z,21.17
2023-05-08T22:55:58.426Z,19.27
2023-05-08T22:58:27.358Z,21.50
2023-05-08T23:00:56.369Z,22.35
2023-05-08T23:03:26.747Z,21.67
2023-05-08T23:05:57.209Z,31.30
2023-05-08T23:08:28.828Z,21.35
2023-05-08T23:11:00.585Z,19.40
2023-05-08T23:13:37.371Z,24.30
2023-05-08T23:16:06.792Z,23.75
2023-05-08T23:18:35.522Z,18.13
2023-05-08T23:21:08.038Z,25.98
2023-05-08T23:23:37.688Z,20.70
2023-05-08T23:26:08.093Z,16.85
2023-05-08T23:28:37.111Z,23.13
2023-05-08T23:31:08.171Z,21.17
2023-05-08T23:33:36.965Z,17.13
2023-05-08T23:36:06.246Z,22.20
2023-05-08T23:38:34.948Z,17.58
2023-05-08T23:41:03.709Z,16.02
2023-05-08T23:43:34.606Z,17.25
2023-05-08T23:46:03.710Z,19.10
2023-05-08T23:48:32.250Z,18.38
2023-05-08T23:51:00.894Z,13.75
2023-05-08T23:53:29.467Z,15.15
2023-05-08T23:55:57.879Z,19.60
2023-05-08T23:58:26.508Z,16.75
